Terminal Aerodrome Forecast
Issued by NWS Louisville, KY

Home | Current Version | Previous Version | Text Only | Print | Product List | Glossary On
Versions: 1 2 3 4 5 6 7 8 9 10 11 12 13 14 15 16 17 18
000
FTUS43 KLMK 271100
TAFSDF
TAF
KSDF 271120Z 2712/2818 33004KT P6SM SKC
     FM271500 35008KT P6SM SCT050
     FM280200 02005KT P6SM BKN250
     FM281400 05009KT P6SM SCT040=

USA.gov is the U.S. government's official web portal to all federal, state and local government web resources and services.